createdAt,value
2023-03-28T00:01:48.174Z,26.60
2023-03-28T00:04:23.542Z,27.10
2023-03-28T00:06:53.955Z,27.60
2023-03-28T00:09:24.180Z,27.60
2023-03-28T00:11:53.993Z,28.10
2023-03-28T00:16:54.236Z,30.20
2023-03-28T00:19:25.971Z,25.80
2023-03-28T00:21:58.142Z,26.00
2023-03-28T00:24:28.475Z,26.50
2023-03-28T00:27:01.159Z,26.60
2023-03-28T00:29:31.687Z,26.30
2023-03-28T00:32:02.040Z,26.60
2023-03-28T00:34:33.648Z,27.50
2023-03-28T00:37:04.187Z,28.00
2023-03-28T00:39:35.009Z,28.90
2023-03-28T00:42:05.168Z,28.40
2023-03-28T00:44:51.325Z,29.00
2023-03-28T00:47:40.023Z,29.50
2023-03-28T00:50:17.087Z,28.90
2023-03-28T00:52:52.631Z,30.00
2023-03-28T00:55:27.246Z,30.70
2023-03-28T00:57:57.877Z,30.50
2023-03-28T01:00:29.636Z,30.50
2023-03-28T01:03:03.555Z,31.60
2023-03-28T01:05:37.138Z,30.30
2023-03-28T01:08:12.986Z,29.20
2023-03-28T01:10:44.354Z,28.90
2023-03-28T01:13:16.500Z,29.50
2023-03-28T01:15:48.064Z,28.20
2023-03-28T01:18:19.090Z,27.70
2023-03-28T01:21:17.167Z,28.80
2023-03-28T01:24:23.746Z,29.90
2023-03-28T01:26:56.008Z,30.50
2023-03-28T01:30:04.644Z,30.80
2023-03-28T01:33:19.200Z,31.50
2023-03-28T01:36:34.172Z,32.60
2023-03-28T01:39:13.594Z,32.10
2023-03-28T01:41:50.688Z,32.40
2023-03-28T01:44:31.770Z,32.80
2023-03-28T01:47:07.396Z,32.10
2023-03-28T01:49:46.640Z,32.80
2023-03-28T01:52:22.181Z,32.50
2023-03-28T01:54:58.957Z,31.80
2023-03-28T01:57:34.877Z,32.80
2023-03-28T02:00:14.258Z,32.80
2023-03-28T02:03:13.124Z,32.50
2023-03-28T02:05:58.243Z,33.80
2023-03-28T02:08:31.546Z,34.70
2023-03-28T02:11:35.934Z,33.80
2023-03-28T02:36:48.295Z,34.80
2023-03-28T02:39:40.119Z,40.70
2023-03-28T02:42:30.556Z,43.50
2023-03-28T02:45:20.394Z,45.20
2023-03-28T03:00:54.500Z,45.90
2023-03-28T03:03:26.198Z,46.90
2023-03-28T03:05:58.650Z,47.00
2023-03-28T04:36:22.972Z,44.80
2023-03-28T04:39:03.225Z,45.70
2023-03-28T04:44:54.872Z,38.30
2023-03-28T04:47:25.868Z,35.70
2023-03-28T04:49:57.450Z,37.30
2023-03-28T04:52:29.219Z,35.90
2023-03-28T04:54:59.961Z,35.40
2023-03-28T05:10:58.728Z,34.00
2023-03-28T05:13:29.971Z,27.40
2023-03-28T05:16:11.597Z,27.60
2023-03-28T05:19:16.709Z,27.30
2023-03-28T05:22:17.237Z,28.30
2023-03-28T05:24:48.777Z,32.40
2023-03-28T05:27:20.642Z,34.60
2023-03-28T05:29:53.219Z,35.30
2023-03-28T05:32:23.972Z,36.30
2023-03-28T05:34:54.892Z,38.00
2023-03-28T05:37:29.096Z,37.60
2023-03-28T05:39:58.916Z,37.20
2023-03-28T05:42:28.924Z,35.20
2023-03-28T05:45:00.001Z,34.20
2023-03-28T05:47:35.968Z,33.60
2023-03-28T05:50:07.280Z,34.10
2023-03-28T05:52:39.753Z,34.40
2023-03-28T05:55:11.053Z,35.80
2023-03-28T05:57:43.056Z,34.90
2023-03-28T06:00:17.089Z,33.10
2023-03-28T06:02:56.426Z,33.60
2023-03-28T06:05:35.019Z,32.20
2023-03-28T06:08:10.964Z,28.40
2023-03-28T06:10:41.398Z,28.20
2023-03-28T06:13:32.934Z,29.90
2023-03-28T06:16:03.136Z,28.40
2023-03-28T06:18:35.969Z,26.80
2023-03-28T06:21:07.166Z,26.40
2023-03-28T06:23:39.139Z,25.80
2023-03-28T06:26:12.624Z,25.70
2023-03-28T06:28:44.888Z,24.80
2023-03-28T06:31:23.744Z,25.20
2023-03-28T06:33:54.250Z,25.00
2023-03-28T06:36:25.388Z,24.90
2023-03-28T06:38:58.901Z,25.20
2023-03-28T06:41:31.177Z,24.70
2023-03-28T06:44:01.275Z,23.40
2023-03-28T06:47:04.676Z,23.40
2023-03-28T06:49:35.317Z,22.90
2023-03-28T06:52:37.379Z,22.20
2023-03-28T06:55:12.313Z,22.30
2023-03-28T06:57:42.399Z,22.20
2023-03-28T07:00:24.529Z,22.00
2023-03-28T07:03:32.736Z,22.00
2023-03-28T07:06:07.682Z,22.60
2023-03-28T07:08:40.730Z,22.20
2023-03-28T07:11:13.044Z,22.40
2023-03-28T07:13:47.448Z,23.00
2023-03-28T07:16:18.883Z,22.60
2023-03-28T07:18:52.094Z,23.40
2023-03-28T07:21:27.647Z,23.00
2023-03-28T07:24:01.877Z,23.60
2023-03-28T07:26:43.347Z,23.10
2023-03-28T07:29:13.774Z,23.30
2023-03-28T07:31:44.044Z,23.30
2023-03-28T07:34:13.984Z,23.50
2023-03-28T07:36:48.544Z,22.80
2023-03-28T07:39:28.993Z,22.70
2023-03-28T07:42:04.323Z,22.20
2023-03-28T07:44:34.243Z,21.30
2023-03-28T07:47:04.884Z,21.70
2023-03-28T07:49:35.516Z,21.40
2023-03-28T07:52:08.560Z,21.60
2023-03-28T07:54:39.252Z,21.80
2023-03-28T07:57:12.339Z,20.80
2023-03-28T08:00:00.352Z,21.20
2023-03-28T08:02:31.056Z,19.70
2023-03-28T08:05:01.236Z,20.40
2023-03-28T08:07:34.601Z,20.30
2023-03-28T08:10:04.735Z,20.00
2023-03-28T08:12:37.428Z,19.80
2023-03-28T08:15:09.245Z,19.30
2023-03-28T08:17:39.327Z,20.00
2023-03-28T08:20:12.362Z,20.00
2023-03-28T08:22:42.484Z,20.40
2023-03-28T08:25:32.375Z,19.40
2023-03-28T08:28:07.082Z,19.50
2023-03-28T08:30:37.715Z,20.00
2023-03-28T08:33:07.967Z,20.30
2023-03-28T08:35:38.403Z,19.20
2023-03-28T08:38:19.894Z,20.30
2023-03-28T08:41:00.770Z,19.90
2023-03-28T08:44:02.997Z,21.60
2023-03-28T08:46:34.260Z,19.80
2023-03-28T08:49:08.553Z,19.20
2023-03-28T08:51:41.145Z,16.40
2023-03-28T08:54:18.330Z,16.00
2023-03-28T08:56:56.113Z,16.80
2023-03-28T08:59:37.202Z,15.90
2023-03-28T09:02:17.962Z,16.40
2023-03-28T09:04:51.478Z,16.00
2023-03-28T09:07:35.903Z,16.20
2023-03-28T09:10:19.514Z,16.20
2023-03-28T09:13:24.792Z,16.70
2023-03-28T09:16:10.996Z,16.70
2023-03-28T09:19:03.534Z,15.50
2023-03-28T09:21:49.024Z,16.40
2023-03-28T09:24:48.582Z,16.00
2023-03-28T09:27:26.124Z,15.30
2023-03-28T09:30:02.389Z,15.70
2023-03-28T09:32:38.510Z,15.10
2023-03-28T09:35:18.305Z,14.70
2023-03-28T09:37:53.229Z,15.50
2023-03-28T09:40:27.662Z,15.00
2023-03-28T09:43:33.393Z,14.90
2023-03-28T09:46:32.554Z,15.40
2023-03-28T09:49:19.422Z,15.20
2023-03-28T09:51:57.721Z,14.30
2023-03-28T09:54:32.446Z,14.60
2023-03-28T09:57:06.604Z,15.10
2023-03-28T09:59:51.735Z,14.90
2023-03-28T10:02:30.681Z,15.00
2023-03-28T10:05:07.055Z,14.80
2023-03-28T10:07:46.180Z,16.00
2023-03-28T10:10:32.551Z,15.80
2023-03-28T10:13:13.517Z,15.90
2023-03-28T10:15:50.708Z,16.50
2023-03-28T10:18:27.683Z,17.70
2023-03-28T10:21:19.922Z,16.50
2023-03-28T10:24:05.007Z,14.90
2023-03-28T10:26:35.830Z,15.30
2023-03-28T10:29:09.741Z,16.00
2023-03-28T10:31:42.553Z,15.80
2023-03-28T10:34:45.415Z,16.90
2023-03-28T10:37:39.811Z,13.60
2023-03-28T10:40:30.539Z,17.20
2023-03-28T10:43:41.373Z,18.00
2023-03-28T10:46:22.470Z,19.50
2023-03-28T10:49:18.172Z,19.60
2023-03-28T10:51:58.226Z,19.50
2023-03-28T10:54:44.822Z,19.30
2023-03-28T10:57:31.942Z,19.00
2023-03-28T11:00:10.260Z,17.60
2023-03-28T11:03:17.446Z,19.70
2023-03-28T11:06:05.798Z,19.40
2023-03-28T11:08:54.633Z,17.70
2023-03-28T11:11:51.689Z,19.60
2023-03-28T11:17:05.240Z,25.80
2023-03-28T11:20:19.196Z,20.60
2023-03-28T11:26:01.828Z,18.30
2023-03-28T11:29:14.594Z,17.70
2023-03-28T11:31:55.227Z,17.90
2023-03-28T11:34:28.688Z,18.40
2023-03-28T11:37:07.955Z,18.00
2023-03-28T11:39:46.153Z,19.10
2023-03-28T11:42:30.464Z,17.50
2023-03-28T11:45:07.481Z,19.40
2023-03-28T11:47:42.254Z,20.30
2023-03-28T11:50:20.929Z,21.50
2023-03-28T11:53:20.019Z,25.00
2023-03-28T11:56:07.354Z,24.30
2023-03-28T11:59:05.327Z,23.80
2023-03-28T12:01:42.268Z,20.80
2023-03-28T12:07:02.461Z,27.10
2023-03-28T12:09:52.085Z,22.10
2023-03-28T12:12:27.210Z,27.40
2023-03-28T12:15:02.444Z,27.40
2023-03-28T12:17:49.942Z,25.80
2023-03-28T12:20:34.439Z,23.80
2023-03-28T12:26:24.847Z,22.80
2023-03-28T12:28:59.066Z,21.90
2023-03-28T12:31:38.613Z,21.70
2023-03-28T12:37:25.546Z,22.60
2023-03-28T12:40:13.416Z,22.40
2023-03-28T12:45:22.711Z,24.10
2023-03-28T12:47:56.550Z,17.00
2023-03-28T12:50:32.078Z,17.70
2023-03-28T12:53:04.358Z,25.30
2023-03-28T12:55:48.599Z,22.50
2023-03-28T12:58:31.642Z,22.30
2023-03-28T13:04:32.122Z,16.80
2023-03-28T13:12:31.406Z,17.30
2023-03-28T13:15:03.674Z,19.90
2023-03-28T13:17:38.203Z,16.10
2023-03-28T13:20:23.268Z,16.70
2023-03-28T13:22:58.820Z,15.70
2023-03-28T13:53:46.931Z,16.20
2023-03-28T13:56:26.989Z,16.40
2023-03-28T13:58:59.362Z,15.90
2023-03-28T14:01:36.455Z,15.70
2023-03-28T14:04:17.921Z,15.50
2023-03-28T14:06:49.225Z,16.70
2023-03-28T14:09:24.802Z,16.70
2023-03-28T14:11:56.170Z,18.40
2023-03-28T14:14:31.517Z,16.50
2023-03-28T14:17:05.520Z,17.40
2023-03-28T14:19:39.395Z,16.30
2023-03-28T14:22:10.475Z,17.30
2023-03-28T14:24:42.431Z,16.30
2023-03-28T14:27:16.543Z,16.50
2023-03-28T14:29:57.831Z,16.70
2023-03-28T14:32:32.518Z,17.10
2023-03-28T14:35:21.727Z,16.80
2023-03-28T14:37:53.165Z,17.00
2023-03-28T14:40:33.279Z,17.00
2023-03-28T14:43:06.710Z,16.80
2023-03-28T14:45:41.896Z,18.20
2023-03-28T14:48:19.096Z,19.80
2023-03-28T14:50:52.194Z,21.00
2023-03-28T14:53:26.127Z,19.10
2023-03-28T14:56:02.196Z,19.70
2023-03-28T14:58:33.744Z,17.80
2023-03-28T15:01:05.245Z,16.80
2023-03-28T15:03:39.306Z,16.70
2023-03-28T15:06:13.542Z,17.60
2023-03-28T15:08:46.199Z,17.70
2023-03-28T15:11:22.775Z,17.70
2023-03-28T15:14:05.495Z,17.60
2023-03-28T15:16:41.259Z,18.40
2023-03-28T15:19:19.754Z,18.20
2023-03-28T15:21:57.028Z,19.30
2023-03-28T15:24:28.481Z,20.80
2023-03-28T15:27:02.515Z,21.20
2023-03-28T15:29:37.448Z,24.20
2023-03-28T15:32:09.909Z,23.20
2023-03-28T15:34:48.236Z,19.40
2023-03-28T15:39:54.105Z,18.60
2023-03-28T15:42:37.019Z,18.80
2023-03-28T15:45:27.612Z,19.00
2023-03-28T15:47:58.248Z,19.30
2023-03-28T15:50:33.581Z,19.00
2023-03-28T15:53:08.598Z,19.40
2023-03-28T15:55:39.040Z,19.40
2023-03-28T15:58:16.522Z,20.00
2023-03-28T16:00:49.816Z,20.10
2023-03-28T16:03:35.014Z,20.60
2023-03-28T16:06:26.605Z,20.50
2023-03-28T16:09:16.186Z,19.80
2023-03-28T16:11:46.627Z,20.20
2023-03-28T16:14:53.339Z,20.20
2023-03-28T16:17:43.249Z,20.40
2023-03-28T16:20:36.545Z,20.20
2023-03-28T16:23:08.612Z,20.00
2023-03-28T16:25:39.443Z,19.90
2023-03-28T16:28:09.757Z,20.10
2023-03-28T16:30:42.741Z,20.20
2023-03-28T16:33:12.376Z,20.40
2023-03-28T16:35:42.109Z,19.60
2023-03-28T16:38:13.417Z,19.80
2023-03-28T16:40:43.332Z,20.40
2023-03-28T16:43:15.811Z,19.60
2023-03-28T16:45:50.557Z,20.00
2023-03-28T16:48:22.270Z,20.00
2023-03-28T16:50:56.210Z,20.50
2023-03-28T16:53:26.824Z,20.00
2023-03-28T16:55:56.735Z,20.00
2023-03-28T16:58:28.412Z,20.60
2023-03-28T17:01:06.827Z,20.30
2023-03-28T17:03:37.310Z,20.50
2023-03-28T17:06:10.114Z,20.60
2023-03-28T17:08:40.485Z,20.90
2023-03-28T17:11:12.316Z,20.90
2023-03-28T17:13:43.853Z,21.30
2023-03-28T17:16:15.775Z,21.90
2023-03-28T17:18:46.760Z,22.00
2023-03-28T17:21:18.324Z,21.90
2023-03-28T17:23:51.256Z,22.60
2023-03-28T17:26:22.650Z,23.00
2023-03-28T17:28:52.662Z,23.30
2023-03-28T17:31:26.370Z,23.50
2023-03-28T17:33:57.209Z,24.30
2023-03-28T17:36:29.270Z,24.10
2023-03-28T17:39:00.731Z,24.80
2023-03-28T17:41:31.763Z,25.10
2023-03-28T17:44:02.701Z,25.70
2023-03-28T17:46:34.858Z,25.60
2023-03-28T17:49:08.577Z,26.90
2023-03-28T17:52:03.633Z,27.20
2023-03-28T17:54:33.789Z,28.30
2023-03-28T17:57:10.527Z,28.60
2023-03-28T17:59:40.886Z,28.50
2023-03-28T18:02:13.313Z,29.20
2023-03-28T18:04:43.780Z,29.90
2023-03-28T18:07:19.736Z,30.00
2023-03-28T18:09:50.256Z,30.50
2023-03-28T18:12:20.904Z,30.90
2023-03-28T18:14:51.337Z,31.50
2023-03-28T18:17:23.521Z,30.40
2023-03-28T18:19:53.646Z,31.50
2023-03-28T18:22:24.668Z,32.50
2023-03-28T18:24:57.024Z,33.10
2023-03-28T18:27:28.576Z,33.80
2023-03-28T18:29:59.930Z,35.30
2023-03-28T18:32:31.692Z,36.90
2023-03-28T18:35:03.143Z,36.00
2023-03-28T18:37:33.464Z,29.50
2023-03-28T18:40:07.768Z,29.80
2023-03-28T18:51:11.438Z,30.50
2023-03-28T18:53:48.099Z,31.40
2023-03-28T18:56:24.993Z,31.30
2023-03-28T18:59:00.900Z,30.90
2023-03-28T19:01:37.647Z,31.50
2023-03-28T19:04:14.302Z,31.90
2023-03-28T19:06:51.177Z,32.20
2023-03-28T19:09:28.242Z,32.30
2023-03-28T19:12:04.993Z,32.00
2023-03-28T19:14:42.934Z,32.40
2023-03-28T19:17:20.102Z,32.00
2023-03-28T19:19:57.311Z,32.40
2023-03-28T19:22:37.258Z,32.90
2023-03-28T19:25:31.931Z,33.20
2023-03-28T19:28:10.517Z,32.70
2023-03-28T19:30:51.502Z,33.60
2023-03-28T19:33:29.229Z,33.30
2023-03-28T19:36:07.473Z,34.00
2023-03-28T19:38:48.208Z,34.50
2023-03-28T19:41:26.720Z,35.20
2023-03-28T19:44:02.470Z,36.70
2023-03-28T19:46:38.642Z,37.60
2023-03-28T19:49:13.359Z,38.70
2023-03-28T19:51:51.457Z,39.80
2023-03-28T19:54:28.042Z,40.60
2023-03-28T19:57:03.635Z,40.90
2023-03-28T19:59:38.845Z,42.50
2023-03-28T20:02:15.692Z,42.70
2023-03-28T20:04:49.325Z,43.60
2023-03-28T20:07:25.765Z,43.60
2023-03-28T20:09:59.256Z,44.10
2023-03-28T20:12:29.797Z,45.00
2023-03-28T20:14:59.913Z,45.80
2023-03-28T20:17:34.596Z,46.40
2023-03-28T20:20:07.620Z,46.50
2023-03-28T20:22:38.344Z,47.50
2023-03-28T20:25:11.239Z,47.60
2023-03-28T20:27:41.149Z,48.30
2023-03-28T20:30:12.299Z,49.00
2023-03-28T20:32:42.265Z,49.30
2023-03-28T20:35:12.742Z,50.20
2023-03-28T20:37:42.769Z,50.40
2023-03-28T20:40:15.534Z,49.90
2023-03-28T20:42:46.680Z,50.20
2023-03-28T20:45:22.678Z,50.30
2023-03-28T20:47:58.966Z,51.50
2023-03-28T20:50:34.338Z,52.60
2023-03-28T20:53:04.269Z,52.70
2023-03-28T20:55:36.733Z,53.00
2023-03-28T20:58:09.205Z,54.50
2023-03-28T21:00:40.668Z,56.80
2023-03-28T21:03:12.683Z,54.00
2023-03-28T21:05:46.531Z,54.00
2023-03-28T21:08:19.918Z,54.50
2023-03-28T21:10:55.779Z,54.80
2023-03-28T21:13:32.040Z,55.80
2023-03-28T21:16:02.999Z,55.80
2023-03-28T21:18:34.942Z,56.30
2023-03-28T21:21:06.680Z,56.70
2023-03-28T21:23:39.381Z,57.40
2023-03-28T21:26:13.488Z,57.40
2023-03-28T21:28:49.015Z,57.70
2023-03-28T21:31:22.286Z,58.20
2023-03-28T21:33:52.561Z,59.00
2023-03-28T21:36:25.751Z,58.70
2023-03-28T21:38:55.889Z,58.70
2023-03-28T21:41:28.740Z,59.10
2023-03-28T21:44:09.307Z,60.50
2023-03-28T21:46:39.631Z,60.40
2023-03-28T21:49:11.907Z,61.40
2023-03-28T21:51:42.327Z,62.50
2023-03-28T21:54:12.440Z,60.20
2023-03-28T21:56:44.129Z,61.60
2023-03-28T21:59:13.895Z,63.30
2023-03-28T22:01:43.616Z,61.00
2023-03-28T22:04:13.427Z,60.60
2023-03-28T22:06:43.552Z,60.40
2023-03-28T22:09:13.469Z,60.10
2023-03-28T22:11:47.178Z,60.20
2023-03-28T22:14:17.932Z,60.10
2023-03-28T22:16:48.123Z,60.20
2023-03-28T22:19:19.064Z,60.80
2023-03-28T22:21:49.904Z,60.60
2023-03-28T22:24:19.621Z,60.30
2023-03-28T22:26:51.264Z,60.50
2023-03-28T22:29:20.879Z,60.80
2023-03-28T22:31:51.038Z,60.20
2023-03-28T22:34:22.036Z,60.20
2023-03-28T22:36:52.143Z,60.00
2023-03-28T22:39:23.006Z,60.10
2023-03-28T22:41:54.539Z,59.80
2023-03-28T22:44:27.129Z,60.80
2023-03-28T22:47:02.976Z,61.40
2023-03-28T22:49:34.522Z,62.10
2023-03-28T22:52:05.558Z,61.10
2023-03-28T22:54:36.904Z,61.10
2023-03-28T22:57:08.965Z,61.80
2023-03-28T22:59:38.894Z,61.90
2023-03-28T23:02:09.140Z,63.60
2023-03-28T23:04:39.028Z,61.80
2023-03-28T23:07:09.663Z,61.50
2023-03-28T23:09:39.575Z,61.20
2023-03-28T23:12:11.328Z,61.70
2023-03-28T23:14:41.839Z,61.90
2023-03-28T23:17:11.880Z,62.60
2023-03-28T23:19:42.802Z,62.50
2023-03-28T23:22:13.017Z,62.70
2023-03-28T23:24:43.249Z,62.70
2023-03-28T23:27:14.902Z,62.90
2023-03-28T23:29:45.124Z,63.00
2023-03-28T23:32:15.043Z,63.00
2023-03-28T23:34:45.045Z,63.40
2023-03-28T23:37:15.174Z,62.90
2023-03-28T23:39:45.405Z,63.00
2023-03-28T23:42:16.859Z,62.80
2023-03-28T23:44:47.069Z,62.70
2023-03-28T23:47:17.378Z,63.20
2023-03-28T23:49:47.498Z,63.00
2023-03-28T23:52:17.939Z,62.80
2023-03-28T23:54:48.157Z,66.00
2023-03-28T23:57:19.731Z,63.70
2023-03-28T23:59:49.619Z,63.40
